KPTN/PTN METAR and TAF weather

Enter ICAO airport designator
Station Type Date Time Source
KPTN METAR 2021/09/24 00:56 UTC NOAA

KPTN 240056Z AUTO 00000KT 10SM CLR 18/18 A3005 RMK AO2 SLP174 T01830178 $


Station Type Date Time Source
KPTN Decoded METAR 2021/09/24 00:56 UTC NOAA

Patterson Memorial, LA, United States (KPTN) 29-43N 091-20W
Sep 23, 2021 - 08:56 PM EDT / 2021.09.24 0056 UTC
Wind: Calm:0
Visibility: 10 mile(s):0
Sky conditions: clear
Temperature: 64.9 F (18.3 C)
Dew Point: 64.0 F (17.8 C)
Relative Humidity: 96%
Pressure (altimeter): 30.05 in. Hg (1017 hPa)
ob: KPTN 240056Z AUTO 00000KT 10SM CLR 18/18 A3005 RMK AO2 SLP174 T01830178
cycle: 1

Station Type Date Time Source
KPTN TAF UTC NOAA

Error!

Example: see airport list